Relevés horaires Bierset (Belgique)


Relevés horaires à Bierset - Jeudi 16 Juin 2022
Heure UTC1 Température [°C] Vent [km/h] Hum. [%] Pres.4 [hPa] Visi. [Km] Nébu. [octa] Préc.5 [mm] Cond.
2m. Res. Ros. Dir.2 Vit. Moy. Raf.3
23:00 18.4 18.4 9.0 E 3.7 5.6 7.4 54 1024.4(0.8/3h) 30 5/8 -- --
22:00 18.6 18.6 8.9 ENE 3.7 5.6 7.4 53 1024.2(1.0/3h) 30 5/8 -- --
21:00 19.3 19.3 9.2 ENE 5.6 7.4 13.0 52 1023.9(0.9/3h) 30 4/8 -- --
20:00 18.8 18.8 9.2 NE 5.6 7.4 11.1 54 1023.5(0.5/3h) 30 4/8 -- --
19:00 20.8 20.8 8.2 NE 7.4 7.4 13.0 44 1023(-0.2/3h) 30 4/8 -- --
18:00 21.5 21.5 8.6 NNE 7.4 9.3 14.8 44 1022.8(0.2/3h) 30 5/8 0/12h
--
17:00 22.6 22.6 8.2 NE 7.4 7.4 11.1 40 1022.8(0.0/3h) 30 5/8 -- --
16:00 23.1 23.1 10.3 NNE 7.4 7.4 11.1 44 1023(-0.1/3h) 30 6/8 -- --
15:00 22.6 22.6 7.7 N 7.4 9.3 14.8 38 1022.9(0.2/3h) 30 5/8 -- --
14:00 22.8 22.8 7.7 N 9.3 9.3 13.0 38 1022.8(0.0/3h) 30 3/8 -- --
13:00 22.4 22.4 7.9 N 5.6 7.4 14.8 39 1023(0.3/3h) 30 2/8 -- --
12:00 22.3 22.3 8.4 NE 5.6 9.3 16.7 41 1022.7(0.4/3h) 30 1/8 0/6h
--
11:00 21.2 21.2 8.7 NNE 7.4 7.4 13.0 45 1022.9(0.9/3h) 30 1/8 -- --
10:00 20.2 20.2 9.8 NNE 7.4 9.3 14.8 51 1022.8(1.5/3h) 30 1/8 -- --
09:00 18.9 18.9 9.9 N 7.4 7.4 11.1 56 1022.5(1.7/3h) 30 1/8 -- --
08:00 18.0 18.0 10.4 N 7.4 7.4 9.3 61 1022.2(2.2/3h) 30 1/8 -- --
07:00 16.8 16.8 10.9 NE 3.7 7.4 9.3 68 1021.5(1.8/3h) 30 1/8 -- --
06:00 15.0 15.0 11.1 N 5.6 7.4 14.8 77 1021.1(1.8/3h) 30 1/8 0/12h
--
05:00 14.0 14.0 10.7 NNE 3.7 3.7 3.7 80 1020.3(1.2/3h) 30 2/8 -- --
04:00 13.0 13.0 10.0 N 1.9 3.7 7.4 82 1019.9(1.1/3h) 30 2/8 -- --
03:00 14.1 14.1 9.3 NNE 3.7 3.7 14.8 73 1019.3(0.7/3h) 30 3/8 -- --
02:00 14.3 14.3 10.4 N 1.9 3.7 3.7 77 1019.1(0.5/3h) 30 5/8 -- --
01:00 14.9 14.9 10.6 NNO 1.9 3.7 14.8 75 1018.6(0.0/3h) 30 3/8 -- --
00:00 17.3 17.3 11.0 N 3.7 7.4 9.3 66 1018.4(0.2/3h) 30 3/8 0/6h
0/24h
--

1 Coordinated Universal Time. Actuellement il est 21:00 locale et 19:00 UTC.

2 Le vent souffle depuis la direction indiquée vers la direction oposée.

3 Les rafales max. sont disponible 40 min après l'heure du relevé.

4 Pour les stations d'altitude (plus de 600m) le géopotentiel du niveau le plus proche de la pression obligatoire est indiqué.

5 Les stations disposant d'un diffuseur peuvent indiquer "trace". Cela signifie que des précipitations ont touchés le sol mais que la quantité est inférieure à 0.1 mm.

Récapitulatif de la journée
Température [°C] Vent [km/h] Ensoleillement4 [h] Precipitations totale5 [mm] Pression [Hpa]
Min1 Max.2 Moy.3 Max. Min Max.
12.7 23.3 6.9 16.7 0 h 0 min 0 1018.4 1024.4

1 Température minimale relevée entre 18:00 UTC la veille et 18:00 UTC le jour donné.

2 Température maximale relevée entre 06:00 UTC le jour donné et 06:00 UTC le lendemain.

3 Vent moyen de la journée basé sur les relevés horaires.

4 Ensoleillement en heures relevé entre 06:00 UTC la veille et 06:00 UTC le jour donné.

5 Précipitations totales tombées entre 06:00 UTC la jour donné et 06:00 UTC le lendemain.

Graphiques horaires